Highland, MD

5:22 AM EDT on March 30, 2015 (GMT -0400)
Highland | | Change Station
CLOSE
Current Station
Personal Weather Station
Location: Highland, MD
Elevation: 469 ft
Nearby Weather Stations

Elev 469 ft 39.18 °N, 76.96 °W | Updated 22 minutes ago

Overcast
Overcast
36.9 °F
Feels Like 37 °F
N
0.0
Wind Variable Wind from West
Gusts 1.0 mph

Today
High -- | Low -- °F
--% Chance of Precip.
Yesterday
High -- | Low -- °F
Precip. -- in
6:55 AM 7:29 PM
Waxing Gibbous, 78% visible
Pressure 29.98 in
Visibility 10.0 miles
Clouds Mostly Cloudy 8500 ft
Windchill 37 °F
Dew Point 29 °F
Humidity 74%
Rainfall 0.00 in
Snow Depth Not available.
UV 0 out of 12
Pollen 7.70 out of 12
Air Quality Not available.
Flu Activity Not available.
METAR KGAI 300915Z AUTO 18005KT 10SM BKN085 04/M06 A2998 RMK AO1

More Conditions Fewer Conditions

Pressure 29.98 in
Visibility 10.0 miles
Clouds Mostly Cloudy 8500 ft
Windchill 37 °F
Dew Point 29 °F
Humidity 74%
Rainfall 0.00 in
Snow Depth Not available.
UV 0 out of 12
Pollen 7.70 out of 12
Air Quality Not available.
Flu Activity Not available.
METAR KGAI 300915Z AUTO 18005KT 10SM BKN085 04/M06 A2998 RMK AO1

More Conditions Fewer Conditions

Nowcast | as of 5:01 am EDT on March 30, 2015

snow and sleet persists over Maryland ... At 457 am EDT...a swath of snow with embedded sleet was across eastern sections of the Baltimore/Washington Metro area and southern Maryland...moving east at 25 mph. Redevelopment behind this swath has led to a slow exit as the feature moves east. Any snow is expected to remain on elevated and grassy surfaces with both ground and air temperatures above freezing. Please take caution...slow down and allow extra time when traveling. Lat...Lon 3935 7623 3947 7623 3945 7628 3944 7625 3920 7644 3927 7663 3901 7638 3823 7671 3844 7702 3844 7704 3838 7715 3840 7704 3828 7700 3827 7701 3831 7725 3964 7652 3964 7616 3945 7606 time...Mot...loc 0857z 278deg 21kt 3957 7647 3837 7713

×

10-Day Weather Forecast

Almanac

Astronomy

Mar. 30, 2015 Rise Set
Actual Time
Civil Twilight
Nautical Twilight
Astronomical Twilight
Moon
Length of Visible Light
Length of Day
Tomorrow will be .
, % of the Moon is Illuminated

Today's Extremes

State Highs State Lows

Community

WunderPhotos

Upload Photos

1,809,452 photos uploaded!

WunderBlogs® & News

Nearby

Air Quality

  Air Quality AQ Index Pollutant
Not available.

Snow Depth

Station Depth Elevation

Earthquake Activity

City Distance Mag. Time & Date
Minimum magnitude displayed is 2.5.

Coastal Water Temperatures

Place Temperature

Stations

Nearby Weather Stations

Station Location Temp. Windchill Dew Point Humidity Wind Precip. Elev Updated Type